Terminal Aerodrome Forecast
Issued by NWS Chicago, IL

Home | Current Version | Previous Version | Graphics & Text | Print | Product List | Glossary On
Versions: 1 2 3 4 5 6 7 8 9 10 11 12 13 14 15 16 17 18 19 20 21 22 23 24 25
000
FTUS43 KLOT 251506 AAA
TAFRFD
TAF AMD
KRFD 251506Z 2515/2612 35012KT P6SM OVC010
     FM251800 35011KT P6SM BKN020
     FM252000 34010KT P6SM SCT035
     FM260100 VRB03KT P6SM FEW040=

USA.gov is the U.S. government's official web portal to all federal, state and local government web resources and services.